createdAt,value
2023-01-25T00:02:17.500Z,3.41
2023-01-25T00:05:20.205Z,3.47
2023-01-25T00:08:25.697Z,3.62
2023-01-25T00:11:29.902Z,3.65
2023-01-25T00:14:38.887Z,3.62
2023-01-25T00:17:41.687Z,3.63
2023-01-25T00:20:46.818Z,3.61
2023-01-25T00:23:52.454Z,3.61
2023-01-25T00:26:56.499Z,3.57
2023-01-25T00:30:02.313Z,3.59
2023-01-25T00:33:30.228Z,3.49
2023-01-25T00:36:41.305Z,3.55
2023-01-25T00:43:07.988Z,3.53
2023-01-25T00:46:11.203Z,3.47
2023-01-25T00:49:21.277Z,3.24
2023-01-25T00:52:23.939Z,3.18
2023-01-25T00:55:27.475Z,3.15
2023-01-25T00:58:33.697Z,3.12
2023-01-25T01:01:36.751Z,3.21
2023-01-25T01:04:39.524Z,3.23
2023-01-25T01:07:42.299Z,3.27
2023-01-25T01:10:48.006Z,3.22
2023-01-25T01:13:53.296Z,3.14
2023-01-25T01:16:58.015Z,3.16
2023-01-25T01:20:02.529Z,3.22
2023-01-25T01:23:05.261Z,3.27
2023-01-25T01:26:12.362Z,3.32
2023-01-25T01:29:16.445Z,3.35
2023-01-25T01:32:21.518Z,3.31
2023-01-25T01:35:24.276Z,3.31
2023-01-25T01:38:29.255Z,3.26
2023-01-25T01:41:34.770Z,3.26
2023-01-25T01:44:48.176Z,3.22
2023-01-25T01:47:51.084Z,3.20
2023-01-25T01:50:57.856Z,3.23
2023-01-25T01:54:06.844Z,3.20
2023-01-25T01:57:14.443Z,3.19
2023-01-25T02:00:22.234Z,3.12
2023-01-25T02:03:25.581Z,3.03
2023-01-25T02:06:39.125Z,2.99
2023-01-25T02:09:42.531Z,2.95
2023-01-25T02:12:45.667Z,2.99
2023-01-25T02:15:51.814Z,2.85
2023-01-25T02:18:57.667Z,2.99
2023-01-25T02:22:07.635Z,3.00
2023-01-25T02:25:13.584Z,2.93
2023-01-25T02:28:20.555Z,2.82
2023-01-25T02:31:26.268Z,2.82
2023-01-25T02:34:29.007Z,2.81
2023-01-25T02:37:31.744Z,2.78
2023-01-25T02:40:42.024Z,2.77
2023-01-25T02:43:44.948Z,2.79
2023-01-25T02:46:47.933Z,2.86
2023-01-25T02:49:52.481Z,2.96
2023-01-25T02:52:55.321Z,2.91
2023-01-25T02:56:03.038Z,2.88
2023-01-25T02:59:05.876Z,2.88
2023-01-25T03:02:08.635Z,2.93
2023-01-25T03:05:11.764Z,2.98
2023-01-25T03:08:15.004Z,2.97
2023-01-25T03:11:19.042Z,2.87
2023-01-25T03:14:21.789Z,2.81
2023-01-25T03:17:26.191Z,2.99
2023-01-25T03:20:34.916Z,3.13
2023-01-25T03:23:37.731Z,3.15
2023-01-25T03:26:55.757Z,3.02
2023-01-25T03:29:58.508Z,3.04
2023-01-25T03:33:01.192Z,2.96
2023-01-25T03:36:06.144Z,2.91
2023-01-25T03:39:09.198Z,2.95
2023-01-25T03:42:13.304Z,2.78
2023-01-25T03:45:16.020Z,2.87
2023-01-25T03:48:18.755Z,3.04
2023-01-25T03:51:21.453Z,2.93
2023-01-25T03:54:24.374Z,2.79
2023-01-25T03:57:28.451Z,2.75
2023-01-25T04:00:31.159Z,2.77
2023-01-25T04:03:35.199Z,2.82
2023-01-25T04:06:37.895Z,2.95
2023-01-25T04:09:40.643Z,2.98
2023-01-25T04:12:44.713Z,3.06
2023-01-25T04:15:47.505Z,2.91
2023-01-25T04:18:50.275Z,2.94
2023-01-25T04:21:55.088Z,2.88
2023-01-25T04:24:57.951Z,2.91
2023-01-25T04:28:02.088Z,2.87
2023-01-25T04:31:06.192Z,2.95
2023-01-25T04:34:08.887Z,3.07
2023-01-25T04:37:11.678Z,3.00
2023-01-25T04:40:14.429Z,3.09
2023-01-25T04:43:19.423Z,2.92
2023-01-25T04:46:22.173Z,2.83
2023-01-25T04:49:24.877Z,2.85
2023-01-25T04:52:27.737Z,2.78
2023-01-25T04:55:33.352Z,2.59
2023-01-25T04:58:38.034Z,2.62
2023-01-25T05:01:40.805Z,2.58
2023-01-25T05:04:43.624Z,2.61
2023-01-25T05:07:46.331Z,2.78
2023-01-25T05:10:48.994Z,2.80
2023-01-25T05:13:54.656Z,3.00
2023-01-25T05:16:57.362Z,3.04
2023-01-25T05:20:00.137Z,2.81
2023-01-25T05:23:03.240Z,2.56
2023-01-25T05:26:23.929Z,2.66
2023-01-25T05:29:28.560Z,2.75
2023-01-25T05:32:31.275Z,2.69
2023-01-25T05:35:34.018Z,2.64
2023-01-25T05:38:36.665Z,2.73
2023-01-25T05:41:39.396Z,2.81
2023-01-25T05:44:46.115Z,2.70
2023-01-25T05:47:54.098Z,2.77
2023-01-25T05:50:58.618Z,2.62
2023-01-25T05:54:01.302Z,2.60
2023-01-25T05:57:04.110Z,2.74
2023-01-25T06:00:10.288Z,2.54
2023-01-25T06:03:13.104Z,2.58
2023-01-25T06:06:15.879Z,2.88
2023-01-25T06:09:18.535Z,2.82
2023-01-25T06:12:21.598Z,2.80
2023-01-25T06:15:25.951Z,2.85
2023-01-25T06:18:31.652Z,2.62
2023-01-25T06:21:35.193Z,2.73
2023-01-25T06:24:37.936Z,2.56
2023-01-25T06:27:40.608Z,2.59
2023-01-25T06:30:44.671Z,2.74
2023-01-25T06:33:50.256Z,2.73
2023-01-25T06:36:55.199Z,2.76
2023-01-25T06:40:07.453Z,2.82
2023-01-25T06:43:11.710Z,2.65
2023-01-25T06:46:15.795Z,2.49
2023-01-25T06:49:18.447Z,2.62
2023-01-25T06:52:21.116Z,2.56
2023-01-25T06:55:24.072Z,2.61
2023-01-25T06:58:30.854Z,2.71
2023-01-25T07:01:35.272Z,2.68
2023-01-25T07:04:38.104Z,2.65
2023-01-25T07:07:40.750Z,2.61
2023-01-25T07:10:43.607Z,2.70
2023-01-25T07:13:48.010Z,2.62
2023-01-25T07:16:52.106Z,2.62
2023-01-25T07:20:00.117Z,2.65
2023-01-25T07:23:06.877Z,2.75
2023-01-25T07:26:18.619Z,2.71
2023-01-25T07:29:21.749Z,2.71
2023-01-25T07:32:28.940Z,2.78
2023-01-25T07:35:32.396Z,2.83
2023-01-25T07:38:36.373Z,2.77
2023-01-25T07:41:39.474Z,2.74
2023-01-25T07:44:45.406Z,2.69
2023-01-25T07:47:49.447Z,2.68
2023-01-25T07:51:11.825Z,2.83
2023-01-25T07:54:16.878Z,2.93
2023-01-25T07:57:29.423Z,2.90
2023-01-25T08:00:32.103Z,2.87
2023-01-25T08:03:36.565Z,2.88
2023-01-25T08:06:39.879Z,2.82
2023-01-25T08:09:43.063Z,2.84
2023-01-25T08:12:47.206Z,2.87
2023-01-25T08:15:56.785Z,2.96
2023-01-25T08:19:03.156Z,2.89
2023-01-25T08:22:08.256Z,2.77
2023-01-25T08:25:11.514Z,2.76
2023-01-25T08:28:14.312Z,2.68
2023-01-25T08:31:21.744Z,2.71
2023-01-25T08:34:32.368Z,2.80
2023-01-25T08:37:35.063Z,2.60
2023-01-25T08:40:38.610Z,2.85
2023-01-25T08:43:41.484Z,2.84
2023-01-25T08:46:45.006Z,2.95
2023-01-25T08:49:49.029Z,2.96
2023-01-25T08:52:52.776Z,3.00
2023-01-25T08:55:57.824Z,2.88
2023-01-25T08:59:02.224Z,2.94
2023-01-25T09:02:04.890Z,3.00
2023-01-25T09:05:09.808Z,3.05
2023-01-25T09:08:12.631Z,3.14
2023-01-25T09:11:17.889Z,3.18
2023-01-25T09:14:20.549Z,3.19
2023-01-25T09:17:41.687Z,3.15
2023-01-25T09:20:45.761Z,3.12
2023-01-25T09:24:09.104Z,3.05
2023-01-25T09:27:12.338Z,2.98
2023-01-25T09:30:18.696Z,3.06
2023-01-25T09:33:21.986Z,3.12
2023-01-25T09:36:26.174Z,3.22
2023-01-25T09:39:28.885Z,3.41
2023-01-25T09:42:45.820Z,3.35
2023-01-25T09:45:51.183Z,3.42
2023-01-25T09:49:08.100Z,3.31
2023-01-25T09:52:35.300Z,3.33
2023-01-25T09:55:53.059Z,3.15
2023-01-25T09:58:59.531Z,3.18
2023-01-25T10:02:06.327Z,3.37
2023-01-25T10:05:16.745Z,3.24
2023-01-25T10:08:28.217Z,3.35
2023-01-25T10:11:32.977Z,3.24
2023-01-25T10:14:35.747Z,3.18
2023-01-25T10:17:55.424Z,3.23
2023-01-25T10:21:01.369Z,3.27
2023-01-25T10:24:33.642Z,3.31
2023-01-25T10:27:55.566Z,3.39
2023-01-25T10:31:02.061Z,3.31
2023-01-25T10:34:18.402Z,3.26
2023-01-25T10:37:26.131Z,3.27
2023-01-25T10:40:36.526Z,3.21
2023-01-25T10:43:40.220Z,3.22
2023-01-25T10:46:51.142Z,3.35
2023-01-25T10:49:56.851Z,3.37
2023-01-25T10:53:07.426Z,3.42
2023-01-25T10:56:31.246Z,3.58
2023-01-25T10:59:37.712Z,3.58
2023-01-25T11:02:46.489Z,3.69
2023-01-25T11:05:54.714Z,3.58
2023-01-25T11:08:58.892Z,3.62
2023-01-25T11:12:04.758Z,3.72
2023-01-25T11:15:26.681Z,3.70
2023-01-25T11:18:33.786Z,3.83
2023-01-25T11:21:36.581Z,3.86
2023-01-25T11:24:42.864Z,3.85
2023-01-25T11:27:46.845Z,3.75
2023-01-25T11:30:50.936Z,3.77
2023-01-25T11:33:55.659Z,3.77
2023-01-25T11:37:29.781Z,3.75
2023-01-25T11:40:48.422Z,3.68
2023-01-25T11:44:21.742Z,3.63
2023-01-25T11:47:43.346Z,3.53
2023-01-25T11:50:50.298Z,3.42
2023-01-25T11:54:13.911Z,3.36
2023-01-25T11:57:55.551Z,3.50
2023-01-25T12:01:12.923Z,3.70
2023-01-25T12:04:41.961Z,3.80
2023-01-25T12:08:05.725Z,3.91
2023-01-25T12:11:17.395Z,3.95
2023-01-25T12:14:37.287Z,3.89
2023-01-25T12:17:58.093Z,3.88
2023-01-25T12:21:13.380Z,4.07
2023-01-25T12:24:36.532Z,4.05
2023-01-25T12:27:52.042Z,4.07
2023-01-25T12:30:59.800Z,4.07
2023-01-25T12:34:08.590Z,4.00
2023-01-25T12:37:17.824Z,4.06
2023-01-25T12:40:41.957Z,4.00
2023-01-25T12:44:05.064Z,3.99
2023-01-25T12:47:15.902Z,4.11
2023-01-25T12:50:30.464Z,4.11
2023-01-25T12:53:39.341Z,3.90
2023-01-25T12:56:48.131Z,3.95
2023-01-25T13:00:09.710Z,4.01
2023-01-25T13:03:28.368Z,3.95
2023-01-25T13:06:43.223Z,3.92
2023-01-25T13:10:04.635Z,3.87
2023-01-25T13:13:23.632Z,3.83
2023-01-25T13:16:43.247Z,3.80
2023-01-25T13:19:45.924Z,3.79
2023-01-25T13:22:59.534Z,3.76
2023-01-25T13:26:38.445Z,3.79
2023-01-25T13:29:47.113Z,3.80
2023-01-25T13:33:02.162Z,3.85
2023-01-25T13:36:38.434Z,3.75
2023-01-25T13:39:45.113Z,3.77
2023-01-25T13:43:00.528Z,3.87
2023-01-25T13:46:07.598Z,3.81
2023-01-25T13:49:22.095Z,3.82
2023-01-25T13:52:26.979Z,3.68
2023-01-25T13:55:39.582Z,3.91
2023-01-25T13:58:48.140Z,3.97
2023-01-25T14:01:54.785Z,3.98
2023-01-25T14:04:59.197Z,3.97
2023-01-25T14:08:02.167Z,3.98
2023-01-25T14:11:09.194Z,3.97
2023-01-25T14:14:21.877Z,4.02
2023-01-25T14:17:24.874Z,4.09
2023-01-25T14:20:27.798Z,4.17
2023-01-25T14:23:32.612Z,4.21
2023-01-25T14:26:41.955Z,4.12
2023-01-25T14:29:49.346Z,4.18
2023-01-25T14:32:54.835Z,4.19
2023-01-25T14:36:24.171Z,4.11
2023-01-25T14:39:30.526Z,4.02
2023-01-25T14:42:34.961Z,4.00
2023-01-25T14:45:38.842Z,3.94
2023-01-25T14:48:45.430Z,4.00
2023-01-25T14:51:50.426Z,4.00
2023-01-25T14:54:56.057Z,3.99
2023-01-25T14:58:02.555Z,4.01
2023-01-25T15:01:05.771Z,4.01
2023-01-25T15:04:14.555Z,4.04
2023-01-25T15:07:34.376Z,4.01
2023-01-25T15:10:38.248Z,4.02
2023-01-25T15:13:42.343Z,4.13
2023-01-25T15:16:45.373Z,3.83
2023-01-25T15:19:53.798Z,3.83
2023-01-25T15:22:58.811Z,3.73
2023-01-25T15:26:03.796Z,3.64
2023-01-25T15:29:14.750Z,3.75
2023-01-25T15:32:21.406Z,3.84
2023-01-25T15:35:24.186Z,3.77
2023-01-25T15:38:37.580Z,3.59
2023-01-25T15:41:40.962Z,3.52
2023-01-25T15:44:45.005Z,3.59
2023-01-25T15:47:47.841Z,3.71
2023-01-25T15:50:55.475Z,3.69
2023-01-25T15:53:58.180Z,3.62
2023-01-25T15:57:01.442Z,3.50
2023-01-25T16:00:06.742Z,3.43
2023-01-25T16:03:09.477Z,3.49
2023-01-25T16:06:26.035Z,3.53
2023-01-25T16:09:33.203Z,3.58
2023-01-25T16:12:36.595Z,3.60
2023-01-25T16:15:42.180Z,3.64
2023-01-25T16:18:45.008Z,3.71
2023-01-25T16:21:47.787Z,3.72
2023-01-25T16:24:50.458Z,3.80
2023-01-25T16:27:55.028Z,3.82
2023-01-25T16:31:01.694Z,3.78
2023-01-25T16:34:04.571Z,3.85
2023-01-25T16:37:07.245Z,3.80
2023-01-25T16:40:24.746Z,3.62
2023-01-25T16:43:42.104Z,3.76
2023-01-25T16:46:48.950Z,3.72
2023-01-25T16:49:51.653Z,3.75
2023-01-25T16:52:57.276Z,3.68
2023-01-25T16:56:00.176Z,3.68
2023-01-25T16:59:07.156Z,3.73
2023-01-25T17:02:13.577Z,3.75
2023-01-25T17:05:16.437Z,3.78
2023-01-25T17:08:19.098Z,3.77
2023-01-25T17:11:22.752Z,3.79
2023-01-25T17:14:25.448Z,3.80
2023-01-25T17:17:31.108Z,3.84
2023-01-25T17:20:34.093Z,3.88
2023-01-25T17:23:38.145Z,3.88
2023-01-25T17:26:41.325Z,3.86
2023-01-25T17:29:44.049Z,3.88
2023-01-25T17:32:48.292Z,3.85
2023-01-25T17:35:51.158Z,3.82
2023-01-25T17:38:54.056Z,3.80
2023-01-25T17:41:56.749Z,3.80
2023-01-25T17:44:59.456Z,3.78
2023-01-25T17:48:03.517Z,3.77
2023-01-25T17:51:06.709Z,3.59
2023-01-25T17:54:10.766Z,3.80
2023-01-25T17:57:13.439Z,3.79
2023-01-25T18:00:17.658Z,3.70
2023-01-25T18:03:21.701Z,3.67
2023-01-25T18:06:26.517Z,3.63
2023-01-25T18:09:31.671Z,3.60
2023-01-25T18:12:34.636Z,3.61
2023-01-25T18:15:37.322Z,3.58
2023-01-25T18:18:43.503Z,3.40
2023-01-25T18:21:46.593Z,3.53
2023-01-25T18:24:49.348Z,3.51
2023-01-25T18:27:51.994Z,3.54
2023-01-25T18:30:59.577Z,3.41
2023-01-25T18:34:05.075Z,3.35
2023-01-25T18:37:20.313Z,3.31
2023-01-25T18:40:25.705Z,3.31
2023-01-25T18:43:31.234Z,3.34
2023-01-25T18:46:33.997Z,3.34
2023-01-25T18:49:38.053Z,3.38
2023-01-25T18:52:40.880Z,3.31
2023-01-25T18:55:43.626Z,3.28
2023-01-25T18:58:47.065Z,3.30
2023-01-25T19:01:57.222Z,3.13
2023-01-25T19:05:03.695Z,3.06
2023-01-25T19:08:06.661Z,2.98
2023-01-25T19:11:12.008Z,3.03
2023-01-25T19:14:14.761Z,3.16
2023-01-25T19:17:19.862Z,3.13
2023-01-25T19:20:30.204Z,3.11
2023-01-25T19:23:34.282Z,3.06
2023-01-25T19:26:37.059Z,3.04
2023-01-25T19:29:42.401Z,2.94
2023-01-25T19:32:45.195Z,2.97
2023-01-25T19:35:49.748Z,3.08
2023-01-25T19:38:52.631Z,3.14
2023-01-25T19:41:55.582Z,3.20
2023-01-25T19:45:12.331Z,3.24
2023-01-25T19:48:17.493Z,3.11
2023-01-25T19:51:23.277Z,3.19
2023-01-25T19:54:28.177Z,3.16
2023-01-25T19:57:33.998Z,3.18
2023-01-25T20:00:36.791Z,3.26
2023-01-25T20:03:46.416Z,3.32
2023-01-25T20:06:51.733Z,3.33
2023-01-25T20:09:54.568Z,3.31
2023-01-25T20:13:00.541Z,3.26
2023-01-25T20:16:03.832Z,3.21
2023-01-25T20:19:08.133Z,3.28
2023-01-25T20:22:12.581Z,3.28
2023-01-25T20:25:16.395Z,3.20
2023-01-25T20:28:19.231Z,3.10
2023-01-25T20:31:25.873Z,3.16
2023-01-25T20:34:28.712Z,3.15
2023-01-25T20:37:32.840Z,3.12
2023-01-25T20:40:35.512Z,3.09
2023-01-25T20:43:38.564Z,3.14
2023-01-25T20:46:42.897Z,3.06
2023-01-25T20:49:45.681Z,3.10
2023-01-25T20:52:53.259Z,3.12
2023-01-25T20:55:56.777Z,3.29
2023-01-25T20:58:59.585Z,3.16
2023-01-25T21:02:02.612Z,3.18
2023-01-25T21:05:09.580Z,3.24
2023-01-25T21:08:14.316Z,3.27
2023-01-25T21:11:17.459Z,3.28
2023-01-25T21:14:20.252Z,3.35
2023-01-25T21:17:26.124Z,3.38
2023-01-25T21:20:36.774Z,3.35
2023-01-25T21:23:48.613Z,3.34
2023-01-25T21:26:51.409Z,3.15
2023-01-25T21:29:54.123Z,3.33
2023-01-25T21:33:21.983Z,3.31
2023-01-25T21:36:24.894Z,3.36
2023-01-25T21:39:29.009Z,3.39
2023-01-25T21:42:32.503Z,3.36
2023-01-25T21:45:56.349Z,3.33
2023-01-25T21:49:18.100Z,3.22
2023-01-25T21:52:21.017Z,3.16
2023-01-25T21:55:25.185Z,3.10
2023-01-25T21:58:28.002Z,3.16
2023-01-25T22:01:30.783Z,3.18
2023-01-25T22:04:36.373Z,3.23
2023-01-25T22:07:42.697Z,3.19
2023-01-25T22:10:46.732Z,3.13
2023-01-25T22:13:49.444Z,3.04
2023-01-25T22:16:52.618Z,3.12
2023-01-25T22:19:56.286Z,2.98
2023-01-25T22:23:02.088Z,3.02
2023-01-25T22:26:11.193Z,2.94
2023-01-25T22:29:15.000Z,2.88
2023-01-25T22:32:19.306Z,2.96
2023-01-25T22:35:21.991Z,2.90
2023-01-25T22:38:24.805Z,2.91
2023-01-25T22:41:32.929Z,2.90
2023-01-25T22:44:36.300Z,2.85
2023-01-25T22:47:38.993Z,2.84
2023-01-25T22:50:41.683Z,2.88
2023-01-25T22:53:47.947Z,2.89
2023-01-25T22:56:55.657Z,2.91
2023-01-25T22:59:58.309Z,2.95
2023-01-25T23:03:01.079Z,2.97
2023-01-25T23:06:05.579Z,2.82
2023-01-25T23:09:08.482Z,3.05
2023-01-25T23:12:12.495Z,3.07
2023-01-25T23:15:16.363Z,3.12
2023-01-25T23:18:36.587Z,3.16
2023-01-25T23:21:42.423Z,3.16
2023-01-25T23:24:45.108Z,3.15
2023-01-25T23:27:49.308Z,3.13
2023-01-25T23:31:11.088Z,3.16
2023-01-25T23:34:14.850Z,3.20
2023-01-25T23:37:17.531Z,3.13
2023-01-25T23:40:23.721Z,3.16
2023-01-25T23:43:30.259Z,3.14
2023-01-25T23:46:36.659Z,3.11
2023-01-25T23:49:44.624Z,3.15
2023-01-25T23:52:47.290Z,3.14
2023-01-25T23:55:53.998Z,3.16
2023-01-25T23:58:58.481Z,3.18
